Time;durP1;ratioP1;P1;durP2;ratioP2;P2;SDS_P1;SDS_P2;PMS_P1;PMS_P2;Temp;Humidity;BMP_temperature;BMP_pressure;BME280_temperature;BME280_humidity;BME280_pressure;Samples;Min_cycle;Max_cycle;Signal;HPM_P1;HPM_P2
2022/08/23 00:01:13;;;;;;;5.60;3.17;;;;;;;-140.72;100.00;52301.59;4953715;28;20027;-68
2022/08/23 00:03:38;;;;;;;6.65;4.07;;;;;;;-140.72;100.00;52321.88;4953444;28;20027;-69
2022/08/23 00:06:04;;;;;;;3.78;3.17;;;;;;;-140.72;100.00;52323.91;4946490;28;20031;-69
2022/08/23 00:08:30;;;;;;;4.40;3.30;;;;;;;-140.72;100.00;52325.94;4949614;28;20059;-69
2022/08/23 00:10:56;;;;;;;5.20;3.28;;;;;;;-140.72;100.00;52317.81;4949528;28;20031;-68
2022/08/23 00:13:22;;;;;;;4.03;2.88;;;;;;;-140.72;100.00;52281.28;4945349;28;20106;-68
2022/08/23 00:15:48;;;;;;;4.72;3.17;;;;;;;-140.72;100.00;52283.31;4953178;28;20115;-70
2022/08/23 00:18:15;;;;;;;7.70;3.60;;;;;;;-140.72;100.00;52338.09;4953249;28;20035;-68
2022/08/23 00:20:42;;;;;;;7.13;3.33;;;;;;;-140.72;100.00;52336.06;4953801;28;20031;-69
2022/08/23 00:23:07;;;;;;;3.88;2.63;;;;;;;-140.72;100.00;52327.97;4953178;28;20039;-67
2022/08/23 00:25:33;;;;;;;3.40;2.47;;;;;;;-140.72;100.00;52321.88;4953714;28;20027;-68
2022/08/23 00:27:58;;;;;;;5.70;3.67;;;;;;;-140.72;100.00;52317.81;4954122;28;20035;-68
2022/08/23 00:30:24;;;;;;;5.35;3.13;;;;;;;-140.72;100.00;52325.94;4952801;28;20452;-68
2022/08/23 00:32:49;;;;;;;3.75;2.20;;;;;;;-140.72;100.00;52311.72;4953968;28;20031;-68
2022/08/23 00:35:16;;;;;;;4.05;2.60;;;;;;;-140.72;100.00;52348.25;4952562;28;20043;-68
2022/08/23 00:37:43;;;;;;;3.15;2.40;;;;;;;-140.72;100.00;52293.47;4953990;28;20023;-68
2022/08/23 00:40:11;;;;;;;7.03;3.00;;;;;;;-140.72;100.00;52309.69;4953011;28;20396;-68
2022/08/23 00:48:53;;;;;;;4.22;2.40;;;;;;;-140.72;100.00;52301.59;4947430;28;20046;-69
2022/08/23 00:51:41;;;;;;;3.78;2.60;;;;;;;-140.72;100.00;52338.09;4940024;28;20421;-68
2022/08/23 00:54:09;;;;;;;5.43;2.40;;;;;;;-140.72;100.00;52309.69;4952329;28;20173;-69
2022/08/23 00:56:38;;;;;;;3.53;2.22;;;;;;;-140.72;100.00;52327.97;4953030;28;20035;-68
2022/08/23 00:59:04;;;;;;;3.92;2.65;;;;;;;-140.72;100.00;52283.31;4952513;28;20105;-68
2022/08/23 01:01:29;;;;;;;4.50;2.58;;;;;;;-140.72;100.00;52305.63;4953720;28;20106;-69
2022/08/23 01:03:58;;;;;;;5.25;2.70;;;;;;;-140.72;100.00;52285.34;4952630;29;20240;-69
2022/08/23 01:06:31;;;;;;;3.67;2.60;;;;;;;-140.72;100.00;52295.50;4953049;28;20023;-68
2022/08/23 01:09:18;;;;;;;3.38;2.10;;;;;;;-140.72;100.00;52283.31;4952056;28;20046;-68
2022/08/23 01:11:59;;;;;;;3.15;1.88;;;;;;;-140.72;100.00;52297.53;4952781;28;20431;-69
2022/08/23 01:14:47;;;;;;;4.57;2.42;;;;;;;-140.72;100.00;52285.34;4939974;28;20455;-69
2022/08/23 01:17:28;;;;;;;2.88;2.17;;;;;;;-140.72;100.00;52309.69;4949515;28;20023;-69
2022/08/23 01:20:01;;;;;;;3.08;1.90;;;;;;;-140.72;100.00;52313.75;4945683;29;20063;-69
2022/08/23 01:23:03;;;;;;;4.03;2.33;;;;;;;-140.72;100.00;52277.22;4953180;29;20357;-68
2022/08/23 01:25:31;;;;;;;2.97;2.13;;;;;;;-140.72;100.00;52293.47;4944105;28;20039;-68
2022/08/23 01:27:58;;;;;;;6.00;3.03;;;;;;;-140.72;100.00;52309.69;4952653;28;20055;-69
2022/08/23 01:30:28;;;;;;;8.38;3.03;;;;;;;-140.72;100.00;52307.66;4950632;28;20111;-69
2022/08/23 01:32:57;;;;;;;5.75;2.60;;;;;;;-140.72;100.00;52297.53;4952076;28;20110;-67
2022/08/23 01:35:32;;;;;;;4.30;1.92;;;;;;;-140.72;100.00;52285.34;4952159;28;20460;-69
2022/08/23 01:37:58;;;;;;;5.57;2.10;;;;;;;-140.72;100.00;52303.59;4949950;28;20078;-69
2022/08/23 01:40:23;;;;;;;3.13;2.00;;;;;;;-140.72;100.00;52342.16;4951595;28;20023;-69
2022/08/23 01:42:48;;;;;;;2.65;1.58;;;;;;;-140.72;100.00;52303.59;4952496;29;20107;-68
2022/08/23 01:45:15;;;;;;;2.90;1.95;;;;;;;-140.72;100.00;52325.94;4952430;28;20160;-69
2022/08/23 01:47:41;;;;;;;3.25;1.90;;;;;;;-140.72;100.00;52267.09;4952165;28;20031;-69
2022/08/23 01:50:08;;;;;;;3.58;2.20;;;;;;;-140.72;100.00;52346.22;4942417;28;20051;-67
2022/08/23 01:52:36;;;;;;;3.50;1.70;;;;;;;-140.72;100.00;52297.53;4948814;28;20027;-68
2022/08/23 01:55:03;;;;;;;4.43;2.42;;;;;;;-140.72;100.00;52330.00;4952569;28;20034;-69
2022/08/23 01:57:30;;;;;;;2.95;2.10;;;;;;;-140.72;100.00;52325.94;4950906;28;20059;-68
2022/08/23 01:59:56;;;;;;;3.42;2.00;;;;;;;-140.72;100.00;52301.59;4945673;28;20877;-68
2022/08/23 02:02:22;;;;;;;3.35;2.28;;;;;;;-140.72;100.00;52271.16;4950760;28;20118;-68
2022/08/23 02:04:47;;;;;;;2.35;1.67;;;;;;;-140.72;100.00;52299.56;4950553;28;20171;-70
2022/08/23 02:07:13;;;;;;;2.25;1.48;;;;;;;-140.72;100.00;52317.81;4950187;28;20062;-68
2022/08/23 02:09:39;;;;;;;3.72;2.78;;;;;;;-140.72;100.00;52309.69;4954199;28;20031;-69
2022/08/23 02:12:05;;;;;;;3.50;2.28;;;;;;;-140.72;100.00;52325.94;4946756;28;20083;-69
2022/08/23 02:14:30;;;;;;;5.50;2.47;;;;;;;-140.72;100.00;52289.41;4949635;28;20027;-68
2022/08/23 02:16:57;;;;;;;5.38;3.00;;;;;;;-140.72;100.00;52285.34;4951372;28;20032;-68
2022/08/23 02:19:22;;;;;;;4.93;2.88;;;;;;;-140.72;100.00;52313.75;4950930;28;20456;-69
2022/08/23 02:21:48;;;;;;;4.50;3.08;;;;;;;-140.72;100.00;52311.72;4950275;28;20035;-69
2022/08/23 02:24:20;;;;;;;3.47;1.92;;;;;;;-140.72;100.00;52289.41;4949187;28;20502;-69
2022/08/23 02:26:51;;;;;;;3.05;2.38;;;;;;;-140.72;100.00;52295.50;4952344;28;20125;-69
2022/08/23 02:29:20;;;;;;;3.35;2.40;;;;;;;-140.72;100.00;52323.91;4951536;28;20097;-68
2022/08/23 02:31:46;;;;;;;3.80;2.33;;;;;;;-140.72;100.00;52273.19;4948088;28;20039;-69
2022/08/23 02:34:13;;;;;;;5.60;2.50;;;;;;;-140.72;100.00;52301.59;4947240;28;20027;-69
2022/08/23 02:36:39;;;;;;;7.40;2.78;;;;;;;-140.72;100.00;52279.25;4949175;28;20992;-70
2022/08/23 02:39:06;;;;;;;5.65;2.63;;;;;;;-140.72;100.00;52285.34;4950597;28;20467;-69
2022/08/23 02:41:32;;;;;;;5.55;2.50;;;;;;;-140.72;100.00;52321.88;4950155;28;20032;-68
2022/08/23 02:43:58;;;;;;;3.03;2.10;;;;;;;-140.72;100.00;52317.81;4950582;28;20027;-69
2022/08/23 02:46:24;;;;;;;2.95;2.35;;;;;;;-140.72;100.00;52319.84;4948143;28;20024;-69
2022/08/23 02:48:49;;;;;;;5.30;3.38;;;;;;;-140.72;100.00;52348.25;4946356;29;20031;-69
2022/08/23 02:51:15;;;;;;;5.18;3.45;;;;;;;-140.72;100.00;52275.19;4950499;28;20414;-69
2022/08/23 02:53:41;;;;;;;4.53;3.55;;;;;;;-140.72;100.00;52281.28;4952766;28;20027;-70
2022/08/23 02:56:07;;;;;;;4.70;2.70;;;;;;;-140.72;100.00;52311.72;4947723;28;20038;-69
2022/08/23 02:58:32;;;;;;;3.95;2.53;;;;;;;-140.72;100.00;52283.31;4949419;28;20035;-69
2022/08/23 03:00:58;;;;;;;6.72;3.38;;;;;;;-140.72;100.00;52289.41;4949863;28;20039;-69
2022/08/23 03:03:24;;;;;;;4.75;3.60;;;;;;;-140.72;100.00;52285.34;4950995;28;20031;-69
2022/08/23 03:05:50;;;;;;;4.43;2.95;;;;;;;-140.72;100.00;52293.47;4952326;28;20059;-68
2022/08/23 03:08:16;;;;;;;3.28;2.63;;;;;;;-140.72;100.00;52267.09;4947368;28;20057;-68
2022/08/23 03:10:43;;;;;;;5.53;3.72;;;;;;;-140.72;100.00;52299.56;4949061;28;20540;-68
2022/08/23 03:13:09;;;;;;;6.03;3.97;;;;;;;-140.72;100.00;52323.91;4948451;28;20034;-69
2022/08/23 03:15:34;;;;;;;6.93;4.25;;;;;;;-140.72;100.00;52277.22;4941494;29;20027;-68
2022/08/23 03:18:00;;;;;;;3.60;2.75;;;;;;;-140.72;100.00;52313.75;4949289;28;20460;-68
2022/08/23 03:20:26;;;;;;;5.68;3.80;;;;;;;-140.72;100.00;52325.94;4951984;28;20429;-68
2022/08/23 03:22:51;;;;;;;5.00;3.50;;;;;;;-140.72;100.00;52295.50;4948939;28;20031;-67
2022/08/23 03:25:16;;;;;;;5.97;3.80;;;;;;;-140.72;100.00;52295.50;4947462;28;20069;-69
2022/08/23 03:27:42;;;;;;;5.95;4.25;;;;;;;-140.72;100.00;52352.31;4947908;29;20058;-68
2022/08/23 03:30:08;;;;;;;6.45;3.88;;;;;;;-140.72;100.00;52283.31;4949404;28;20063;-68
2022/08/23 03:32:34;;;;;;;4.00;3.15;;;;;;;-140.72;100.00;52299.56;4949898;28;20035;-68
2022/08/23 03:34:59;;;;;;;6.55;4.22;;;;;;;-140.72;100.00;52285.34;4952168;28;20047;-68
2022/08/23 03:37:24;;;;;;;5.43;3.88;;;;;;;-140.72;100.00;52313.75;4952570;28;20062;-68
2022/08/23 03:39:51;;;;;;;3.90;3.17;;;;;;;-140.72;100.00;52327.97;4953793;28;20030;-68
2022/08/23 03:42:17;;;;;;;5.93;3.60;;;;;;;-140.72;100.00;52323.91;4954454;28;20034;-68
2022/08/23 03:44:42;;;;;;;6.68;3.75;;;;;;;-140.72;100.00;52301.59;4955419;28;20031;-68
2022/08/23 03:47:07;;;;;;;5.07;3.70;;;;;;;-140.72;100.00;52313.75;4953864;28;20035;-68
2022/08/23 03:49:33;;;;;;;5.38;3.30;;;;;;;-140.72;100.00;52334.03;4954651;28;20034;-68
2022/08/23 03:51:59;;;;;;;5.40;3.05;;;;;;;-140.72;100.00;52303.59;4950139;28;20122;-69
2022/08/23 03:54:26;;;;;;;8.18;4.20;;;;;;;-140.72;100.00;52348.25;4948652;28;20031;-68
2022/08/23 03:57:04;;;;;;;5.15;3.90;;;;;;;-140.72;100.00;52301.59;4952867;28;20071;-69
2022/08/23 03:59:32;;;;;;;5.60;3.22;;;;;;;-140.72;100.00;52336.06;4951751;29;20066;-68
2022/08/23 04:01:58;;;;;;;4.47;2.97;;;;;;;-140.72;100.00;52301.59;4954540;28;20039;-69
2022/08/23 04:04:24;;;;;;;5.07;2.80;;;;;;;-140.72;100.00;52334.03;4954111;28;20089;-70
2022/08/23 04:06:49;;;;;;;4.22;2.40;;;;;;;-140.72;100.00;52309.69;4949139;28;20027;-69
2022/08/23 04:09:15;;;;;;;3.85;2.72;;;;;;;-140.72;100.00;52309.69;4951520;28;20031;-69
2022/08/23 04:11:42;;;;;;;4.05;2.75;;;;;;;-140.72;100.00;52311.72;4953657;28;20027;-69
2022/08/23 04:14:07;;;;;;;4.85;3.20;;;;;;;-140.72;100.00;52321.88;4953413;28;20062;-69
2022/08/23 04:16:36;;;;;;;4.68;3.55;;;;;;;-140.72;100.00;52338.09;4954810;28;20024;-69
2022/08/23 04:19:06;;;;;;;6.45;2.85;;;;;;;-140.72;100.00;52317.81;4951510;28;20155;-68
2022/08/23 04:21:36;;;;;;;3.72;3.05;;;;;;;-140.72;100.00;52366.50;4940455;28;20121;-68
2022/08/23 04:24:03;;;;;;;7.70;4.00;;;;;;;-140.72;100.00;52325.94;4954203;28;20031;-69
2022/08/23 04:26:29;;;;;;;4.68;3.33;;;;;;;-140.72;100.00;52346.22;4953290;28;20046;-68
2022/08/23 04:28:54;;;;;;;8.00;3.97;;;;;;;-140.72;100.00;52321.88;4940657;29;20465;-69
2022/08/23 04:31:20;;;;;;;6.88;3.35;;;;;;;-140.72;100.00;52313.75;4948666;28;20122;-69
2022/08/23 04:33:46;;;;;;;5.63;3.53;;;;;;;-140.72;100.00;52285.34;4953226;28;20117;-69
2022/08/23 04:36:11;;;;;;;6.18;3.50;;;;;;;-140.72;100.00;52301.59;4952393;28;20051;-69
2022/08/23 04:38:37;;;;;;;7.47;4.30;;;;;;;-140.72;100.00;52325.94;4951615;28;20039;-68
2022/08/23 04:43:47;;;;;;;7.93;4.35;;;;;;;-140.72;100.00;52342.16;4952118;28;20074;-69
2022/08/23 04:46:15;;;;;;;6.10;4.07;;;;;;;-140.72;100.00;52330.00;4950545;28;20047;-69
2022/08/23 04:48:43;;;;;;;6.18;4.32;;;;;;;-140.72;100.00;52334.03;4947947;28;20157;-74
2022/08/23 04:51:09;;;;;;;5.45;4.38;;;;;;;-140.72;100.00;52315.78;4952218;28;20491;-67
2022/08/23 04:53:35;;;;;;;5.68;3.95;;;;;;;-140.72;100.00;52346.22;4949306;28;20030;-68
2022/08/23 04:56:02;;;;;;;6.80;4.90;;;;;;;-140.72;100.00;52327.97;4952663;28;20368;-68
2022/08/23 04:58:29;;;;;;;5.75;4.53;;;;;;;-140.72;100.00;52350.28;4951672;28;20023;-69
2022/08/23 05:00:57;;;;;;;5.00;3.60;;;;;;;-140.72;100.00;52358.41;4948527;28;20070;-69
2022/08/23 05:03:23;;;;;;;5.57;3.60;;;;;;;-140.72;100.00;52370.56;4951692;28;20085;-67
2022/08/23 05:05:48;;;;;;;5.72;4.03;;;;;;;-140.72;100.00;52315.78;4953036;28;20428;-67
2022/08/23 05:08:14;;;;;;;8.32;3.75;;;;;;;-140.72;100.00;52332.03;4949583;28;20494;-66
2022/08/23 05:10:40;;;;;;;6.80;3.63;;;;;;;-140.72;100.00;52321.88;4953111;28;20023;-67
2022/08/23 05:13:05;;;;;;;7.10;3.50;;;;;;;-140.72;100.00;52336.06;4953325;28;20392;-68
2022/08/23 05:15:31;;;;;;;6.28;3.47;;;;;;;-140.72;100.00;52334.03;4952356;28;20118;-65
2022/08/23 05:17:56;;;;;;;3.75;2.72;;;;;;;-140.72;100.00;52338.09;4951060;28;20031;-68
2022/08/23 05:20:21;;;;;;;4.95;3.28;;;;;;;-140.72;100.00;52297.53;4950231;28;20035;-67
2022/08/23 05:22:47;;;;;;;6.57;4.43;;;;;;;-140.72;100.00;52311.72;4953031;28;20038;-67
2022/08/23 05:25:12;;;;;;;4.50;3.20;;;;;;;-140.72;100.00;52358.41;4951815;28;20031;-67
2022/08/23 05:27:38;;;;;;;5.20;3.15;;;;;;;-140.72;100.00;52340.13;4949039;28;20035;-68
2022/08/23 05:30:05;;;;;;;5.47;2.85;;;;;;;-140.72;100.00;52338.09;4949305;28;20389;-68
2022/08/23 05:32:31;;;;;;;4.25;2.78;;;;;;;-140.72;100.00;52338.09;4952473;28;20493;-67
2022/08/23 05:34:56;;;;;;;3.58;2.20;;;;;;;-140.72;100.00;52350.28;4951325;28;20039;-68
2022/08/23 05:37:22;;;;;;;4.68;3.05;;;;;;;-140.72;100.00;52327.97;4951868;28;20034;-69
2022/08/23 05:39:47;;;;;;;3.60;2.50;;;;;;;-140.72;100.00;52325.94;4949381;28;20082;-68
2022/08/23 05:42:15;;;;;;;3.33;2.15;;;;;;;-140.72;100.00;52342.16;4945800;29;20031;-67
2022/08/23 05:44:43;;;;;;;5.57;3.73;;;;;;;-140.72;100.00;52334.03;4951129;28;20496;-68
2022/08/23 05:47:13;;;;;;;5.97;4.47;;;;;;;-140.72;100.00;52327.97;4951067;28;20043;-68
2022/08/23 05:49:39;;;;;;;5.28;2.92;;;;;;;-140.72;100.00;52327.97;4943590;28;20038;-68
2022/08/23 05:52:07;;;;;;;4.63;2.80;;;;;;;-140.72;100.00;52356.38;4951445;28;20046;-67
2022/08/23 05:54:34;;;;;;;5.03;2.95;;;;;;;-140.72;100.00;52354.34;4952486;28;20027;-69
2022/08/23 05:56:59;;;;;;;7.63;4.43;;;;;;;-140.72;100.00;52305.63;4952422;28;20114;-67
2022/08/23 05:59:25;;;;;;;10.68;4.30;;;;;;;-140.72;100.00;52338.09;4951439;28;20102;-74
2022/08/23 06:01:50;;;;;;;4.35;3.17;;;;;;;-140.72;100.00;52352.31;4952775;28;20369;-73
2022/08/23 06:04:16;;;;;;;6.75;4.45;;;;;;;-140.72;100.00;52330.00;4951642;28;20046;-73
2022/08/23 06:06:42;;;;;;;11.35;4.65;;;;;;;-140.72;100.00;52307.66;4948299;28;20031;-74
2022/08/23 06:09:11;;;;;;;8.30;4.25;;;;;;;-140.72;100.00;52295.50;4943263;29;20033;-74
2022/08/23 06:11:36;;;;;;;5.63;3.60;;;;;;;-140.72;100.00;52313.75;4951507;28;20035;-74
2022/08/23 06:14:04;;;;;;;6.95;4.43;;;;;;;-140.72;100.00;52334.03;4951614;28;20038;-70
2022/08/23 06:16:32;;;;;;;4.13;3.47;;;;;;;-140.72;100.00;52309.69;4950919;28;20369;-70
2022/08/23 06:18:58;;;;;;;8.00;4.75;;;;;;;-140.72;100.00;52301.59;4951492;28;20648;-70
2022/08/23 06:21:24;;;;;;;5.13;3.90;;;;;;;-140.72;100.00;52303.59;4950161;28;20085;-69
2022/08/23 06:23:51;;;;;;;8.93;4.38;;;;;;;-140.72;100.00;52299.56;4950866;28;20106;-70
2022/08/23 06:26:22;;;;;;;6.28;4.03;;;;;;;-140.72;100.00;52277.22;4949559;28;20471;-70
2022/08/23 06:28:50;;;;;;;5.75;3.97;;;;;;;-140.72;100.00;52307.66;4946415;28;20036;-69
2022/08/23 06:31:44;;;;;;;5.22;4.18;;;;;;;-140.72;100.00;52307.66;4944046;28;20019;-70
2022/08/23 06:34:03;;;;;;;12.02;5.25;;;;;;;-140.72;100.00;52321.88;4948227;28;20331;-70
2022/08/23 06:36:28;;;;;;;6.65;5.15;;;;;;;-140.72;100.00;52277.22;4941252;29;20134;-69
2022/08/23 06:38:54;;;;;;;6.22;3.97;;;;;;;-140.72;100.00;52248.81;4950952;28;20114;-70
2022/08/23 06:41:19;;;;;;;6.90;4.78;;;;;;;-140.72;100.00;52271.16;4949588;28;20394;-70
2022/08/23 06:43:45;;;;;;;10.80;4.40;;;;;;;-140.72;100.00;52283.31;4950994;28;20516;-69
2022/08/23 06:46:16;;;;;;;8.10;4.28;;;;;;;-140.72;100.00;52281.28;4950819;28;20027;-69
2022/08/23 06:48:43;;;;;;;9.82;4.95;;;;;;;-140.72;100.00;52275.19;4950406;28;20023;-70
2022/08/23 06:51:19;;;;;;;6.53;5.13;;;;;;;-140.72;100.00;52277.22;4948363;28;20488;-69
2022/08/23 06:53:44;;;;;;;6.57;4.13;;;;;;;-140.72;100.00;52248.81;4951493;29;20416;-70
2022/08/23 06:56:10;;;;;;;6.43;4.68;;;;;;;-140.72;100.00;52238.69;4950941;28;20034;-69
2022/08/23 06:58:36;;;;;;;8.88;4.35;;;;;;;-140.72;100.00;52261.00;4951943;28;20074;-71
2022/08/23 07:01:18;;;;;;;7.10;3.97;;;;;;;-140.72;100.00;52226.50;4950598;28;20476;-69
2022/08/23 07:03:43;;;;;;;12.35;3.92;;;;;;;-140.72;100.00;52258.97;4949565;28;20028;-69
2022/08/23 07:06:09;;;;;;;7.47;3.33;;;;;;;-140.72;100.00;52254.91;4951752;28;20031;-69
2022/08/23 07:08:34;;;;;;;6.68;3.90;;;;;;;-140.72;100.00;52238.69;4947773;28;20023;-69
2022/08/23 07:11:00;;;;;;;5.63;2.58;;;;;;;-140.72;100.00;52208.25;4949754;28;20031;-68
2022/08/23 07:13:25;;;;;;;3.78;2.85;;;;;;;-140.72;100.00;52185.94;4953610;28;20062;-69
2022/08/23 07:15:56;;;;;;;3.58;2.47;;;;;;;-140.72;100.00;52250.84;4953891;28;20027;-70
2022/08/23 07:18:22;;;;;;;3.70;2.40;;;;;;;-140.72;100.00;52224.47;4953635;28;20035;-70
2022/08/23 07:20:47;;;;;;;3.92;2.63;;;;;;;-140.72;100.00;52242.75;4953995;28;20464;-69
2022/08/23 07:23:14;;;;;;;4.30;2.85;;;;;;;-140.72;100.00;52204.19;4953538;28;20067;-70
2022/08/23 07:25:39;;;;;;;3.38;2.17;;;;;;;-140.72;100.00;52192.00;4953493;28;20472;-70
2022/08/23 07:28:05;;;;;;;8.75;2.47;;;;;;;-140.72;100.00;52222.44;4954229;28;20117;-70
2022/08/23 07:30:30;;;;;;;9.10;2.63;;;;;;;-140.72;100.00;52208.25;4954564;28;20484;-71
2022/08/23 07:32:55;;;;;;;5.57;2.08;;;;;;;-140.72;100.00;52212.31;4953356;28;20062;-70
2022/08/23 07:35:21;;;;;;;5.15;2.20;;;;;;;-140.72;100.00;52153.47;4952811;28;20051;-70
2022/08/23 07:37:46;;;;;;;6.45;2.00;;;;;;;-140.72;100.00;52236.66;4954275;28;20031;-71
2022/08/23 07:40:12;;;;;;;3.15;1.70;;;;;;;-140.72;100.00;52204.19;4952254;28;20033;-69
2022/08/23 07:42:37;;;;;;;3.10;1.52;;;;;;;-140.72;100.00;52242.75;4945179;28;20263;-69
2022/08/23 07:45:03;;;;;;;2.58;1.40;;;;;;;-140.72;100.00;52179.84;4942983;28;20085;-68
2022/08/23 07:47:29;;;;;;;3.58;1.83;;;;;;;-140.72;100.00;52236.66;4953609;28;20035;-70
2022/08/23 07:49:55;;;;;;;2.78;1.38;;;;;;;-140.72;100.00;52196.06;4954764;28;20035;-70
2022/08/23 07:52:20;;;;;;;4.97;1.55;;;;;;;-140.72;100.00;52192.00;4953385;28;20110;-70
2022/08/23 07:54:46;;;;;;;3.45;2.15;;;;;;;-140.72;100.00;52210.28;4953461;28;21449;-69
2022/08/23 07:57:11;;;;;;;3.00;1.65;;;;;;;-140.72;100.00;52240.72;4951917;28;20551;-69
2022/08/23 07:59:36;;;;;;;4.30;1.95;;;;;;;-140.72;100.00;52159.56;4949742;28;20034;-69
2022/08/23 08:02:02;;;;;;;3.17;2.40;;;;;;;-140.72;100.00;52183.91;4952890;28;20042;-70
2022/08/23 08:04:27;;;;;;;5.43;1.55;;;;;;;-140.72;100.00;52157.53;4951511;28;20114;-69
2022/08/23 08:06:53;;;;;;;5.63;1.85;;;;;;;-140.72;100.00;52204.19;4951361;28;20110;-69
2022/08/23 08:09:19;;;;;;;4.10;2.42;;;;;;;-140.72;100.00;52151.44;4948253;28;20102;-71
2022/08/23 08:11:46;;;;;;;5.25;2.58;;;;;;;-140.72;100.00;52183.91;4952462;28;20035;-71
2022/08/23 08:14:13;;;;;;;4.80;2.00;;;;;;;-140.72;100.00;52139.25;4953319;28;20090;-70
2022/08/23 08:16:43;;;;;;;4.22;2.38;;;;;;;-140.72;100.00;52151.44;4951152;28;20126;-69
2022/08/23 08:19:11;;;;;;;6.82;2.90;;;;;;;-140.72;100.00;52125.06;4953890;28;20263;-70
2022/08/23 08:21:38;;;;;;;4.85;2.70;;;;;;;-140.72;100.00;52110.84;4952113;28;20035;-72
2022/08/23 08:24:05;;;;;;;4.47;2.42;;;;;;;-140.72;100.00;52116.94;4951589;28;20042;-71
2022/08/23 08:26:31;;;;;;;4.78;2.58;;;;;;;-140.72;100.00;52116.94;4948486;28;20070;-69
2022/08/23 08:28:56;;;;;;;5.70;2.55;;;;;;;-140.72;100.00;52062.16;4948582;29;20028;-72
2022/08/23 08:31:23;;;;;;;5.65;2.65;;;;;;;-140.72;100.00;52003.31;4948523;28;20622;-71
2022/08/23 08:33:49;;;;;;;5.55;2.40;;;;;;;-140.72;100.00;52029.69;4950601;29;20062;-71
2022/08/23 08:36:40;;;;;;;5.50;2.50;;;;;;;-140.72;33.57;51997.22;4952946;28;20083;-71
2022/08/23 08:39:13;;;;;;;3.38;1.75;;;;;;;-140.72;0.00;52025.63;4950103;28;20094;-71
2022/08/23 08:42:05;;;;;;;8.48;2.28;;;;;;;-140.72;0.00;51985.06;4951386;28;20023;-69
2022/08/23 08:44:50;;;;;;;5.25;2.17;;;;;;;-140.72;0.00;52041.88;4952445;28;20090;-70
2022/08/23 08:47:30;;;;;;;2.85;1.77;;;;;;;-140.72;0.00;52039.84;4950682;28;20038;-71
2022/08/23 08:50:11;;;;;;;4.80;2.08;;;;;;;-140.72;0.00;52031.72;4952797;28;20087;-72
2022/08/23 08:52:44;;;;;;;3.30;1.38;;;;;;;-140.72;0.00;52013.47;4943093;29;20031;-71
2022/08/23 08:55:22;;;;;;;3.58;2.13;;;;;;;-140.72;0.00;52025.63;4949274;28;20031;-70
2022/08/23 08:57:52;;;;;;;5.90;2.27;;;;;;;-140.72;0.00;51997.22;4951422;28;20050;-69
2022/08/23 09:00:24;;;;;;;4.75;2.53;;;;;;;-140.72;0.00;52029.69;4952412;28;20023;-71
2022/08/23 09:02:50;;;;;;;8.77;2.30;;;;;;;-140.72;0.00;52037.81;4950886;28;20031;-70
2022/08/23 09:05:26;;;;;;;3.08;1.70;;;;;;;-140.72;0.00;51972.88;4953060;28;20023;-70
2022/08/23 09:08:09;;;;;;;4.88;1.58;;;;;;;-140.72;0.00;52003.31;4951702;28;20031;-70
2022/08/23 09:10:50;;;;;;;2.42;1.38;;;;;;;-140.72;0.00;51942.44;4940511;28;20038;-69
2022/08/23 09:13:34;;;;;;;3.53;1.10;;;;;;;-140.72;0.00;51920.13;4949434;28;20070;-70
2022/08/23 09:16:13;;;;;;;2.33;0.95;;;;;;;-140.72;0.00;51924.19;4952818;28;20035;-69
2022/08/23 09:18:39;;;;;;;1.90;1.08;;;;;;;-140.72;0.00;51887.66;4946018;28;20385;-70
2022/08/23 09:21:07;;;;;;;1.30;0.77;;;;;;;-140.72;0.00;51875.50;4948031;29;20027;-70
2022/08/23 09:23:37;;;;;;;3.75;1.08;;;;;;;-140.72;0.00;51877.53;4952328;28;20027;-68
2022/08/23 09:26:21;;;;;;;6.15;0.85;;;;;;;-140.72;0.00;51845.06;4952789;28;20034;-69
2022/08/23 09:28:50;;;;;;;3.42;1.08;;;;;;;-140.72;0.00;51879.56;4952753;28;20500;-70
2022/08/23 09:31:40;;;;;;;1.20;0.70;;;;;;;-140.72;0.00;51914.03;4951448;28;20038;-69
2022/08/23 09:34:06;;;;;;;3.40;0.98;;;;;;;-140.72;0.00;51936.38;4949663;28;20516;-69
2022/08/23 09:36:36;;;;;;;1.55;0.73;;;;;;;-140.72;0.00;51928.25;4952495;28;20376;-73
2022/08/23 09:39:25;;;;;;;4.15;1.17;;;;;;;-140.72;0.00;51914.03;4949079;29;20033;-73
2022/08/23 09:41:51;;;;;;;3.97;0.95;;;;;;;-140.72;0.00;51948.53;4953109;28;20035;-74
2022/08/23 09:44:30;;;;;;;1.92;0.90;;;;;;;-140.72;0.00;51993.19;4951957;28;20117;-74
2022/08/23 09:47:10;;;;;;;2.40;0.70;;;;;;;-140.72;0.00;51989.13;4951189;28;20035;-73
2022/08/23 09:49:38;;;;;;;1.38;0.73;;;;;;;-140.72;0.00;52003.31;4952694;28;20110;-73
2022/08/23 09:52:33;;;;;;;1.63;0.55;;;;;;;-140.72;0.00;51974.91;4951992;28;20499;-74
2022/08/23 09:55:01;;;;;;;1.15;0.50;;;;;;;-140.72;0.00;51962.75;4941058;29;20349;-75
2022/08/23 09:57:30;;;;;;;0.88;0.40;;;;;;;-140.72;0.00;51946.50;4950113;28;20157;-75
2022/08/23 10:00:14;;;;;;;0.82;0.45;;;;;;;-140.72;0.00;51907.97;4949197;29;20069;-69
2022/08/23 10:02:40;;;;;;;0.70;0.32;;;;;;;-140.72;0.00;51946.50;4944627;28;20038;-69
2022/08/23 10:05:26;;;;;;;1.85;0.68;;;;;;;-140.72;0.00;51942.44;4951381;28;20024;-70
2022/08/23 10:08:00;;;;;;;0.65;0.38;;;;;;;-140.72;0.00;51928.25;4947515;28;20043;-70
2022/08/23 10:10:35;;;;;;;2.45;0.57;;;;;;;-140.72;0.00;51954.63;4946667;28;20393;-68
2022/08/23 10:13:02;;;;;;;1.17;0.47;;;;;;;-140.72;0.00;51924.19;4949938;28;20031;-68
2022/08/23 10:16:06;;;;;;;0.75;0.35;;;;;;;-140.72;0.00;51938.41;4944402;29;20031;-69
2022/08/23 10:18:51;;;;;;;1.60;0.32;;;;;;;-140.72;0.00;51885.66;4950564;28;20039;-69
2022/08/23 10:21:41;;;;;;;1.05;0.40;;;;;;;-140.72;0.00;51926.22;4950059;28;20054;-69
2022/08/23 10:24:22;;;;;;;0.50;0.35;;;;;;;-140.72;0.00;51863.31;4951605;28;20027;-69
2022/08/23 10:30:01;;;;;;;;;;;;;;;-140.72;0.00;51802.47;4948550;28;20078;-68
2022/08/23 10:32:50;;;;;;;1.83;0.40;;;;;;;-140.72;0.00;51865.34;4947120;28;19910;-69
2022/08/23 10:35:34;;;;;;;1.20;0.50;;;;;;;-140.72;0.00;51972.88;4946731;28;20083;-69
2022/08/23 10:38:16;;;;;;;1.70;0.43;;;;;;;-140.72;0.00;51857.25;4950882;28;20294;-70
2022/08/23 10:41:01;;;;;;;1.38;0.30;;;;;;;-140.72;0.00;51759.84;4949097;28;20507;-69
2022/08/23 10:43:29;;;;;;;1.70;0.28;;;;;;;-140.72;0.00;51725.38;4950411;28;20444;-69
2022/08/23 10:45:59;;;;;;;0.90;0.45;;;;;;;-140.72;0.00;51715.22;4951272;28;20118;-70
2022/08/23 10:48:29;;;;;;;0.65;0.20;;;;;;;-140.72;0.00;51696.97;4951084;28;20343;-68
2022/08/23 10:51:10;;;;;;;0.40;0.20;;;;;;;-140.72;0.00;51630.00;4955320;28;20043;-68
2022/08/23 10:53:45;;;;;;;1.40;0.20;;;;;;;-140.72;0.00;51690.88;4954782;28;20389;-70
2022/08/23 10:56:16;;;;;;;0.88;0.30;;;;;;;-140.72;0.00;51672.63;4953697;28;20031;-69
2022/08/23 10:59:02;;;;;;;1.63;0.40;;;;;;;-140.72;0.00;51676.69;4954543;28;20031;-69
2022/08/23 11:01:42;;;;;;;1.20;0.22;;;;;;;-140.72;0.00;51609.72;4953966;28;20398;-68
2022/08/23 11:04:22;;;;;;;1.25;0.47;;;;;;;-140.72;0.00;51656.38;4953860;28;20387;-68
2022/08/23 11:06:54;;;;;;;0.40;0.10;;;;;;;-140.72;0.00;51656.38;4953778;28;20046;-69
2022/08/23 11:09:19;;;;;;;0.95;0.38;;;;;;;-140.72;0.00;51648.28;4953865;28;20027;-67
2022/08/23 11:12:07;;;;;;;0.97;0.40;;;;;;;-140.72;0.00;51605.66;4954482;28;20031;-68
2022/08/23 11:14:32;;;;;;;0.82;0.22;;;;;;;-140.72;0.00;51802.47;4952896;28;20050;-68
2022/08/23 11:17:01;;;;;;;1.17;0.40;;;;;;;-140.72;0.00;51664.50;4954088;28;20039;-74
2022/08/23 11:19:48;;;;;;;0.68;0.22;;;;;;;-140.72;0.00;51554.94;4953040;28;20035;-69
2022/08/23 11:22:17;;;;;;;2.92;0.20;;;;;;;-140.72;0.00;51701.03;4953505;28;20391;-68
2022/08/23 11:25:00;;;;;;;0.73;0.28;;;;;;;-140.72;0.00;51670.59;4953245;28;20122;-68
2022/08/23 11:27:27;;;;;;;2.25;0.50;;;;;;;-140.72;0.00;51644.22;4952675;28;20046;-68
2022/08/23 11:29:53;;;;;;;0.55;0.28;;;;;;;-140.72;0.00;51703.06;4950814;28;20400;-69
2022/08/23 11:32:30;;;;;;;1.02;0.30;;;;;;;-140.72;0.00;51644.22;4953737;28;20031;-70
2022/08/23 11:35:07;;;;;;;1.45;0.30;;;;;;;-140.72;0.00;51526.56;4944775;28;20055;-69
2022/08/23 11:37:54;;;;;;;0.47;0.20;;;;;;;-140.72;0.00;51534.66;4948211;28;20035;-69